^^

..:: Storico WU ::..




Lo storico viene creato da WUnderground con i dati che la stazione Meteomincio invia al loro server. L' aggiornamento viene fatto ogni 5 minuti circa, tuttavia possono esserci intervalli pił ampi a causa di errori, interruzioni di servizio o problemi nell' invio tramite FTP.


Storico stazione MeteoMincio
Giorno Sommario per Marzo 19, 2022 Unità:  Inglese    Metrico   Entrambi
Giorno Settimana Mese Anno
  Max: Min: Media:
Temperatura: 59 °F 39.2 °F 49.1 °F
Dew Point: 35.6 °F 28.4 °F 32.5 °F
Umidità: 76% 32% 54%
Velocità vento: 19.3mph 0mph 8.6mph
Raffica: 24.2mph - -
Direzione- - East
Pressione: 30.6 in 30.4 in -
Precipitazioni: 0 in    
 
 
Tabulato Dati per Marzo 19, 2022
Ora Temperatura Dew Point Pressione Direzione Velocità vento Raffica Umidità Intensità pioggia (oraria) Info solare Situazione
00:04 46.4 °F 33.8 °F 30.6 in ENE 8.1 mph 11.8 mph 64% 0 in 0.00 W/m2 unknown
00:09 46.4 °F 33.8 °F 30.6 in ENE 8.7 mph 10.6 mph 64% 0 in 0.00 W/m2 unknown
00:14 46.4 °F 33.8 °F 30.6 in ENE 10.6 mph 14.9 mph 64% 0 in 0.00 W/m2 unknown
00:19 46.4 °F 33.8 °F 30.6 in ENE 10.6 mph 14.9 mph 63% 0 in 0.00 W/m2 unknown
00:24 46.4 °F 33.8 °F 30.6 in ENE 9.3 mph 14.9 mph 62% 0 in 0.00 W/m2 unknown
00:29 46.4 °F 33.8 °F 30.6 in ENE 9.9 mph 14.9 mph 62% 0 in 0.00 W/m2 unknown
00:34 46.4 °F 33.8 °F 30.6 in ENE 9.3 mph 14.3 mph 62% 0 in 0.00 W/m2 unknown
00:39 46.4 °F 33.8 °F 30.6 in ENE 9.3 mph 14.3 mph 62% 0 in 0.00 W/m2 unknown
00:44 46.4 °F 33.8 °F 30.6 in ENE 10.6 mph 14.3 mph 62% 0 in 0.00 W/m2 unknown
00:49 46.4 °F 33.8 °F 30.6 in ENE 10.6 mph 14.3 mph 62% 0 in 0.00 W/m2 unknown
00:54 46.4 °F 33.8 °F 30.6 in ENE 9.3 mph 14.3 mph 62% 0 in 0.00 W/m2 unknown
00:59 46.4 °F 33.8 °F 30.6 in ENE 9.9 mph 13 mph 62% 0 in 0.00 W/m2 unknown
01:04 46.4 °F 33.8 °F 30.6 in ENE 9.9 mph 13 mph 63% 0 in 0.00 W/m2 unknown
01:09 46.4 °F 33.8 °F 30.6 in ENE 11.2 mph 14.3 mph 63% 0 in 0.00 W/m2 unknown
01:14 44.6 °F 33.8 °F 30.6 in ENE 9.9 mph 14.3 mph 63% 0 in 0.00 W/m2 unknown
01:19 44.6 °F 33.8 °F 30.6 in ENE 10.6 mph 14.9 mph 63% 0 in 0.00 W/m2 unknown
01:24 46.4 °F 33.8 °F 30.6 in ENE 11.2 mph 14.9 mph 63% 0 in 0.00 W/m2 unknown
01:29 46.4 °F 33.8 °F 30.6 in ENE 12.4 mph 17.4 mph 63% 0 in 0.00 W/m2 unknown
01:34 46.4 °F 33.8 °F 30.6 in ENE 13 mph 17.4 mph 62% 0 in 0.00 W/m2 unknown
01:39 46.4 °F 33.8 °F 30.6 in ENE 13.7 mph 18.6 mph 62% 0 in 0.00 W/m2 unknown
01:44 46.4 °F 33.8 °F 30.6 in ENE 11.8 mph 18 mph 62% 0 in 0.00 W/m2 unknown
01:49 46.4 °F 33.8 °F 30.6 in ENE 11.8 mph 17.4 mph 62% 0 in 0.00 W/m2 unknown
01:54 46.4 °F 33.8 °F 30.6 in ENE 11.2 mph 16.8 mph 62% 0 in 0.00 W/m2 unknown
01:59 46.4 °F 33.8 °F 30.6 in ENE 10.6 mph 16.2 mph 62% 0 in 0.00 W/m2 unknown
02:04 46.4 °F 33.8 °F 30.6 in ENE 10.6 mph 14.3 mph 62% 0 in 0.00 W/m2 unknown
02:09 46.4 °F 33.8 °F 30.6 in ENE 9.9 mph 14.3 mph 62% 0 in 0.00 W/m2 unknown
02:14 46.4 °F 33.8 °F 30.6 in ENE 8.7 mph 14.3 mph 63% 0 in 0.00 W/m2 unknown
02:19 46.4 °F 33.8 °F 30.6 in ENE 8.7 mph 13 mph 63% 0 in 0.00 W/m2 unknown
02:24 44.6 °F 33.8 °F 30.6 in ENE 8.7 mph 11.8 mph 63% 0 in 0.00 W/m2 unknown
02:29 44.6 °F 33.8 °F 30.6 in ENE 6.8 mph 9.3 mph 64% 0 in 0.00 W/m2 unknown
02:34 44.6 °F 33.8 °F 30.6 in ENE 8.1 mph 10.6 mph 64% 0 in 0.00 W/m2 unknown
02:39 44.6 °F 33.8 °F 30.6 in ENE 9.3 mph 13 mph 64% 0 in 0.00 W/m2 unknown
02:44 44.6 °F 33.8 °F 30.6 in ENE 9.9 mph 13 mph 65% 0 in 0.00 W/m2 unknown
02:49 44.6 °F 33.8 °F 30.6 in ENE 9.9 mph 13 mph 64% 0 in 0.00 W/m2 unknown
02:54 44.6 °F 33.8 °F 30.6 in East 8.1 mph 13 mph 64% 0 in 0.00 W/m2 unknown
02:59 44.6 °F 33.8 °F 30.6 in ENE 8.1 mph 13 mph 64% 0 in 0.00 W/m2 unknown
03:04 44.6 °F 33.8 °F 30.6 in ENE 8.1 mph 10.6 mph 65% 0 in 0.00 W/m2 unknown
03:09 44.6 °F 33.8 °F 30.6 in ENE 8.1 mph 11.8 mph 66% 0 in 0.00 W/m2 unknown
03:14 44.6 °F 33.8 °F 30.6 in ENE 8.1 mph 11.8 mph 66% 0 in 0.00 W/m2 unknown
03:19 44.6 °F 33.8 °F 30.6 in ENE 6.8 mph 9.9 mph 67% 0 in 0.00 W/m2 unknown
03:24 44.6 °F 33.8 °F 30.6 in ENE 6.2 mph 9.3 mph 67% 0 in 0.00 W/m2 unknown
03:29 42.8 °F 33.8 °F 30.6 in ENE 6.2 mph 8.7 mph 67% 0 in 0.00 W/m2 unknown
03:34 42.8 °F 33.8 °F 30.6 in ENE 6.2 mph 8.1 mph 67% 0 in 0.00 W/m2 unknown
03:39 42.8 °F 33.8 °F 30.6 in East 6.2 mph 8.1 mph 67% 0 in 0.00 W/m2 unknown
03:44 42.8 °F 33.8 °F 30.6 in East 5.6 mph 9.3 mph 67% 0 in 0.00 W/m2 unknown
03:49 42.8 °F 33.8 °F 30.6 in East 6.2 mph 8.7 mph 67% 0 in 0.00 W/m2 unknown
03:54 42.8 °F 32 °F 30.6 in East 6.2 mph 8.1 mph 67% 0 in 0.00 W/m2 unknown
03:59 42.8 °F 32 °F 30.6 in East 5.6 mph 8.1 mph 67% 0 in 0.00 W/m2 unknown
04:04 42.8 °F 33.8 °F 30.6 in ENE 5.6 mph 8.1 mph 67% 0 in 0.00 W/m2 unknown
04:09 42.8 °F 33.8 °F 30.6 in ENE 5.6 mph 9.3 mph 67% 0 in 0.00 W/m2 unknown
04:14 42.8 °F 33.8 °F 30.6 in ENE 6.2 mph 8.7 mph 67% 0 in 0.00 W/m2 unknown
04:19 42.8 °F 33.8 °F 30.6 in ENE 5 mph 8.1 mph 67% 0 in 0.00 W/m2 unknown
04:24 42.8 °F 32 °F 30.6 in ENE 5 mph 6.8 mph 67% 0 in 0.00 W/m2 unknown
04:29 42.8 °F 32 °F 30.6 in ENE 6.2 mph 9.3 mph 67% 0 in 0.00 W/m2 unknown
04:34 42.8 °F 32 °F 30.6 in ENE 6.2 mph 9.9 mph 67% 0 in 0.00 W/m2 unknown
04:39 42.8 °F 32 °F 30.6 in ENE 6.8 mph 10.6 mph 67% 0 in 0.00 W/m2 unknown
04:44 42.8 °F 32 °F 30.6 in East 5 mph 9.9 mph 67% 0 in 0.00 W/m2 unknown
04:49 42.8 °F 32 °F 30.6 in East 5 mph 6.8 mph 67% 0 in 0.00 W/m2 unknown
04:54 42.8 °F 32 °F 30.6 in East 5 mph 8.1 mph 67% 0 in 0.00 W/m2 unknown
04:59 42.8 °F 32 °F 30.6 in ENE 5 mph 8.1 mph 67% 0 in 0.00 W/m2 unknown
05:04 42.8 °F 32 °F 30.6 in East 4.3 mph 6.8 mph 67% 0 in 0.00 W/m2 unknown
05:09 42.8 °F 32 °F 30.6 in East 3.7 mph 6.2 mph 68% 0 in 0.00 W/m2 unknown
05:14 42.8 °F 32 °F 30.6 in ENE 3.7 mph 5 mph 68% 0 in 0.00 W/m2 unknown
05:19 42.8 °F 32 °F 30.6 in ENE 3.7 mph 5 mph 68% 0 in 0.00 W/m2 unknown
05:24 41 °F 32 °F 30.6 in ENE 3.7 mph 5.6 mph 68% 0 in 0.00 W/m2 unknown
05:29 41 °F 32 °F 30.6 in East 3.7 mph 6.2 mph 68% 0 in 0.00 W/m2 unknown
05:34 41 °F 32 °F 30.6 in East 3.1 mph 5 mph 68% 0 in 0.00 W/m2 unknown
05:39 41 °F 32 °F 30.6 in East 3.7 mph 6.2 mph 68% 0 in 0.00 W/m2 unknown
05:44 41 °F 32 °F 30.6 in ENE 3.1 mph 6.2 mph 68% 0 in 0.00 W/m2 unknown
05:49 41 °F 32 °F 30.6 in ENE 3.1 mph 6.2 mph 68% 0 in 0.00 W/m2 unknown
05:54 41 °F 32 °F 30.6 in NE 2.5 mph 5 mph 70% 0 in 0.00 W/m2 unknown
05:59 41 °F 32 °F 30.6 in NNE 2.5 mph 3.7 mph 71% 0 in 0.00 W/m2 unknown
06:04 39.2 °F 32 °F 30.6 in NNE 2.5 mph 3.7 mph 71% 0 in 0.00 W/m2 unknown
06:09 39.2 °F 32 °F 30.6 in NNE 2.5 mph 3.7 mph 76% 0 in 0.00 W/m2 unknown
06:14 39.2 °F 32 °F 30.6 in NNE 2.5 mph 3.7 mph 73% 0 in 0.00 W/m2 unknown
06:19 39.2 °F 32 °F 30.6 in NE 1.9 mph 3.7 mph 73% 0 in 0.00 W/m2 unknown
06:24 39.2 °F 32 °F 30.6 in NNE 1.9 mph 3.7 mph 73% 0 in 0.00 W/m2 unknown
06:29 39.2 °F 32 °F 30.6 in ENE 2.5 mph 3.7 mph 74% 0 in 7.00 W/m2 unknown
06:34 39.2 °F 32 °F 30.6 in ENE 3.1 mph 3.7 mph 74% 0 in 11.00 W/m2 unknown
06:39 39.2 °F 32 °F 30.6 in ENE 2.5 mph 3.7 mph 73% 0 in 16.00 W/m2 unknown
06:44 39.2 °F 32 °F 30.6 in NNE 2.5 mph 3.7 mph 73% 0 in 21.00 W/m2 unknown
06:49 39.2 °F 32 °F 30.6 in NE 2.5 mph 3.7 mph 73% 0 in 26.00 W/m2 unknown
06:54 39.2 °F 32 °F 30.6 in NE 1.9 mph 3.7 mph 73% 0 in 32.00 W/m2 unknown
06:59 39.2 °F 32 °F 30.6 in NE 2.5 mph 3.7 mph 73% 0 in 37.00 W/m2 unknown
07:04 39.2 °F 32 °F 30.6 in East 1.9 mph 3.7 mph 73% 0 in 44.00 W/m2 unknown
07:09 39.2 °F 32 °F 30.6 in East 1.2 mph 2.5 mph 72% 0 in 49.00 W/m2 unknown
07:14 41 °F 32 °F 30.6 in ENE 1.2 mph 1.9 mph 73% 0 in 60.00 W/m2 unknown
07:19 41 °F 32 °F 30.6 in Calm     72% 0 in 72.00 W/m2 unknown
07:24 41 °F 32 °F 30.6 in Calm   1.2 mph 71% 0 in 84.00 W/m2 unknown
07:29 41 °F 32 °F 30.6 in Calm   1.2 mph 71% 0 in 95.00 W/m2 unknown
07:34 42.8 °F 33.8 °F 30.6 in Calm   1.2 mph 71% 0 in 98.00 W/m2 unknown
07:39 42.8 °F 33.8 °F 30.6 in East 1.2 mph 2.5 mph 71% 0 in 104.00 W/m2 unknown
07:44 42.8 °F 33.8 °F 30.6 in East 2.5 mph 3.7 mph 71% 0 in 132.00 W/m2 unknown
07:49 42.8 °F 33.8 °F 30.6 in East 2.5 mph 5 mph 67% 0 in 142.00 W/m2 unknown
07:54 44.6 °F 33.8 °F 30.6 in East 5 mph 6.2 mph 67% 0 in 158.00 W/m2 unknown
07:59 44.6 °F 33.8 °F 30.6 in ESE 5.6 mph 6.8 mph 67% 0 in 163.00 W/m2 unknown
08:04 44.6 °F 33.8 °F 30.6 in ESE 6.2 mph 9.3 mph 67% 0 in 181.00 W/m2 unknown
08:09 44.6 °F 33.8 °F 30.6 in ESE 5 mph 6.8 mph 65% 0 in 195.00 W/m2 unknown
08:14 44.6 °F 33.8 °F 30.6 in ESE 5.6 mph 8.1 mph 65% 0 in 213.00 W/m2 unknown
08:19 46.4 °F 33.8 °F 30.6 in ESE 6.2 mph 9.3 mph 65% 0 in 227.00 W/m2 unknown
08:24 46.4 °F 33.8 °F 30.6 in East 6.2 mph 8.7 mph 63% 0 in 244.00 W/m2 unknown
08:29 46.4 °F 33.8 °F 30.6 in East 6.2 mph 8.1 mph 62% 0 in 257.00 W/m2 unknown
08:34 48.2 °F 33.8 °F 30.6 in ESE 6.2 mph 8.1 mph 61% 0 in 271.00 W/m2 unknown
08:39 48.2 °F 35.6 °F 30.6 in ESE 6.8 mph 8.1 mph 60% 0 in 290.00 W/m2 unknown
08:44 48.2 °F 35.6 °F 30.6 in East 8.1 mph 11.8 mph 60% 0 in 299.00 W/m2 unknown
08:49 50 °F 33.8 °F 30.6 in East 8.1 mph 11.8 mph 57% 0 in 315.00 W/m2 unknown
08:54 50 °F 35.6 °F 30.6 in ENE 6.8 mph 9.9 mph 57% 0 in 325.00 W/m2 unknown
08:59 50 °F 33.8 °F 30.6 in ENE 7.5 mph 9.3 mph 56% 0 in 339.00 W/m2 unknown
09:04 50 °F 35.6 °F 30.6 in ENE 6.2 mph 8.7 mph 56% 0 in 348.00 W/m2 unknown
09:09 50 °F 35.6 °F 30.6 in East 8.7 mph 11.8 mph 56% 0 in 364.00 W/m2 unknown
09:14 50 °F 35.6 °F 30.6 in East 9.3 mph 14.3 mph 55% 0 in 369.00 W/m2 unknown
09:19 51.8 °F 35.6 °F 30.6 in ENE 8.7 mph 14.9 mph 55% 0 in 371.00 W/m2 unknown
09:24 51.8 °F 35.6 °F 30.6 in East 11.2 mph 16.2 mph 54% 0 in 381.00 W/m2 unknown
09:29 51.8 °F 35.6 °F 30.6 in East 11.8 mph 16.2 mph 54% 0 in 390.00 W/m2 unknown
09:34 51.8 °F 33.8 °F 30.6 in ENE 12.4 mph 14.9 mph 52% 0 in 401.00 W/m2 unknown
09:39 51.8 °F 35.6 °F 30.6 in East 11.8 mph 14.9 mph 52% 0 in 415.00 W/m2 unknown
09:44 51.8 °F 35.6 °F 30.6 in East 10.6 mph 14.3 mph 52% 0 in 441.00 W/m2 unknown
09:49 51.8 °F 35.6 °F 30.6 in East 9.9 mph 14.3 mph 52% 0 in 461.00 W/m2 unknown
09:54 53.6 °F 35.6 °F 30.6 in East 11.8 mph 18.6 mph 51% 0 in 480.00 W/m2 unknown
09:59 53.6 °F 33.8 °F 30.6 in East 11.8 mph 18 mph 48% 0 in 483.00 W/m2 unknown
10:04 53.6 °F 33.8 °F 30.6 in East 14.3 mph 17.4 mph 48% 0 in 497.00 W/m2 unknown
10:09 53.6 °F 33.8 °F 30.6 in ENE 13 mph 16.8 mph 47% 0 in 510.00 W/m2 unknown
10:14 53.6 °F 33.8 °F 30.6 in East 13 mph 17.4 mph 47% 0 in 515.00 W/m2 unknown
10:19 53.6 °F 33.8 °F 30.6 in East 14.3 mph 17.4 mph 48% 0 in 524.00 W/m2 unknown
10:24 53.6 °F 33.8 °F 30.6 in East 13 mph 16.8 mph 48% 0 in 538.00 W/m2 unknown
10:29 53.6 °F 33.8 °F 30.6 in ESE 11.8 mph 16.2 mph 47% 0 in 547.00 W/m2 unknown
10:34 53.6 °F 33.8 °F 30.5 in ESE 13.7 mph 16.2 mph 46% 0 in 552.00 W/m2 unknown
10:39 53.6 °F 33.8 °F 30.5 in East 13 mph 16.2 mph 45% 0 in 563.00 W/m2 unknown
10:44 55.4 °F 33.8 °F 30.5 in East 9.9 mph 16.2 mph 45% 0 in 571.00 W/m2 unknown
10:49 55.4 °F 33.8 °F 30.5 in East 13.7 mph 16.2 mph 45% 0 in 582.00 W/m2 unknown
10:54 53.6 °F 33.8 °F 30.5 in East 13 mph 16.2 mph 45% 0 in 587.00 W/m2 unknown
10:59 55.4 °F 33.8 °F 30.5 in East 13.7 mph 17.4 mph 45% 0 in 594.00 W/m2 unknown
11:04 55.4 °F 33.8 °F 30.5 in East 13 mph 16.8 mph 45% 0 in 603.00 W/m2 unknown
11:09 55.4 °F 33.8 °F 30.5 in East 13.7 mph 19.9 mph 44% 0 in 610.00 W/m2 unknown
11:14 55.4 °F 33.8 °F 30.5 in East 13.7 mph 19.9 mph 44% 0 in 617.00 W/m2 unknown
11:19 55.4 °F 33.8 °F 30.5 in East 12.4 mph 19.9 mph 45% 0 in 624.00 W/m2 unknown
11:24 55.4 °F 33.8 °F 30.5 in ESE 12.4 mph 19.9 mph 44% 0 in 628.00 W/m2 unknown
11:29 55.4 °F 33.8 °F 30.5 in ESE 11.8 mph 19.9 mph 44% 0 in 638.00 W/m2 unknown
11:34 55.4 °F 33.8 °F 30.5 in East 10.6 mph 14.9 mph 44% 0 in 642.00 W/m2 unknown
11:39 55.4 °F 33.8 °F 30.5 in East 10.6 mph 16.2 mph 43% 0 in 647.00 W/m2 unknown
11:44 55.4 °F 33.8 °F 30.5 in East 16.8 mph 21.7 mph 42% 0 in 654.00 W/m2 unknown
11:49 55.4 °F 32 °F 30.5 in East 16.2 mph 21.7 mph 40% 0 in 654.00 W/m2 unknown
11:54 55.4 °F 32 °F 30.5 in East 11.8 mph 21.7 mph 41% 0 in 659.00 W/m2 unknown
11:59 55.4 °F 33.8 °F 30.5 in ESE 11.8 mph 19.9 mph 42% 0 in 657.00 W/m2 unknown
12:04 55.4 °F 32 °F 30.5 in ESE 12.4 mph 18 mph 40% 0 in 663.00 W/m2 unknown
12:09 55.4 °F 32 °F 30.5 in ESE 15.5 mph 18.6 mph 40% 0 in 643.00 W/m2 unknown
12:14 55.4 °F 33.8 °F 30.5 in ESE 11.8 mph 18 mph 42% 0 in 652.00 W/m2 unknown
12:19 57.2 °F 33.8 °F 30.5 in ESE 9.9 mph 14.9 mph 42% 0 in 656.00 W/m2 unknown
12:24 57.2 °F 33.8 °F 30.5 in East 13 mph 17.4 mph 41% 0 in 670.00 W/m2 unknown
12:29 57.2 °F 32 °F 30.5 in ENE 11.8 mph 16.8 mph 39% 0 in 668.00 W/m2 unknown
12:34 57.2 °F 33.8 °F 30.5 in East 13 mph 18.6 mph 40% 0 in 666.00 W/m2 unknown
12:39 57.2 °F 33.8 °F 30.5 in East 12.4 mph 18 mph 40% 0 in 652.00 W/m2 unknown
12:44 57.2 °F 32 °F 30.5 in East 14.9 mph 18.6 mph 40% 0 in 643.00 W/m2 unknown
12:49 57.2 °F 32 °F 30.5 in East 13 mph 18.6 mph 39% 0 in 643.00 W/m2 unknown
12:54 57.2 °F 33.8 °F 30.5 in East 11.8 mph 18 mph 40% 0 in 645.00 W/m2 unknown
12:59 57.2 °F 32 °F 30.5 in ENE 13 mph 16.2 mph 39% 0 in 635.00 W/m2 unknown
13:04 57.2 °F 32 °F 30.5 in East 12.4 mph 16.2 mph 40% 0 in 645.00 W/m2 unknown
13:09 57.2 °F 33.8 °F 30.5 in East 11.8 mph 18 mph 40% 0 in 661.00 W/m2 unknown
13:14 57.2 °F 33.8 °F 30.5 in ENE 14.3 mph 18.6 mph 40% 0 in 664.00 W/m2 unknown
13:19 57.2 °F 32 °F 30.5 in East 9.9 mph 18 mph 38% 0 in 652.00 W/m2 unknown
13:24 57.2 °F 32 °F 30.5 in East 11.8 mph 14.9 mph 39% 0 in 656.00 W/m2 unknown
13:29 57.2 °F 33.8 °F 30.5 in East 12.4 mph 14.9 mph 40% 0 in 642.00 W/m2 unknown
13:34 57.2 °F 33.8 °F 30.5 in East 13 mph 14.9 mph 40% 0 in 636.00 W/m2 unknown
13:39 57.2 °F 33.8 °F 30.5 in East 15.5 mph 19.3 mph 40% 0 in 629.00 W/m2 unknown
13:44 57.2 °F 33.8 °F 30.5 in East 15.5 mph 19.9 mph 40% 0 in 605.00 W/m2 unknown
13:49 57.2 °F 33.8 °F 30.5 in East 13 mph 19.9 mph 40% 0 in 603.00 W/m2 unknown
13:54 57.2 °F 33.8 °F 30.5 in ESE 13 mph 16.8 mph 42% 0 in 599.00 W/m2 unknown
13:59 57.2 °F 35.6 °F 30.5 in East 12.4 mph 16.2 mph 42% 0 in 589.00 W/m2 unknown
14:04 59 °F 33.8 °F 30.5 in East 11.2 mph 17.4 mph 40% 0 in 592.00 W/m2 unknown
14:09 57.2 °F 33.8 °F 30.5 in ESE 10.6 mph 14.3 mph 40% 0 in 598.00 W/m2 unknown
14:14 59 °F 33.8 °F 30.5 in ENE 13.7 mph 17.4 mph 40% 0 in 578.00 W/m2 unknown
14:19 59 °F 33.8 °F 30.5 in ENE 13.7 mph 17.4 mph 40% 0 in 571.00 W/m2 unknown
14:24 59 °F 33.8 °F 30.5 in East 14.9 mph 21.7 mph 40% 0 in 554.00 W/m2 unknown
14:29 57.2 °F 33.8 °F 30.5 in East 13.7 mph 21.7 mph 39% 0 in 533.00 W/m2 unknown
14:34 59 °F 33.8 °F 30.5 in ENE 13 mph 17.4 mph 39% 0 in 519.00 W/m2 unknown
14:39 59 °F 33.8 °F 30.5 in East 11.8 mph 16.8 mph 38% 0 in 513.00 W/m2 unknown
14:44 59 °F 32 °F 30.5 in East 11.2 mph 16.2 mph 38% 0 in 543.00 W/m2 unknown
14:49 59 °F 32 °F 30.5 in East 16.2 mph 24.2 mph 38% 0 in 527.00 W/m2 unknown
14:54 59 °F 32 °F 30.5 in East 16.8 mph 24.2 mph 38% 0 in 531.00 W/m2 unknown
14:59 59 °F 32 °F 30.5 in East 14.3 mph 24.2 mph 37% 0 in 515.00 W/m2 unknown
15:04 59 °F 32 °F 30.5 in East 15.5 mph 23 mph 37% 0 in 501.00 W/m2 unknown
15:09 59 °F 33.8 °F 30.4 in East 16.2 mph 23 mph 38% 0 in 492.00 W/m2 unknown
15:14 59 °F 32 °F 30.4 in East 12.4 mph 23 mph 36% 0 in 471.00 W/m2 unknown
15:19 59 °F 32 °F 30.4 in East 13 mph 19.9 mph 36% 0 in 480.00 W/m2 unknown
15:24 59 °F 32 °F 30.4 in East 13 mph 19.9 mph 36% 0 in 464.00 W/m2 unknown
15:29 59 °F 32 °F 30.4 in East 13 mph 19.3 mph 36% 0 in 443.00 W/m2 unknown
15:34 57.2 °F 32 °F 30.4 in East 14.9 mph 21.7 mph 36% 0 in 445.00 W/m2 unknown
15:39 59 °F 30.2 °F 30.4 in East 13.7 mph 21.7 mph 35% 0 in 432.00 W/m2 unknown
15:44 59 °F 30.2 °F 30.4 in East 15.5 mph 21.1 mph 34% 0 in 422.00 W/m2 unknown
15:49 59 °F 28.4 °F 30.4 in East 16.2 mph 21.7 mph 33% 0 in 408.00 W/m2 unknown
15:54 59 °F 28.4 °F 30.4 in ESE 19.3 mph 23 mph 32% 0 in 394.00 W/m2 unknown
15:59 57.2 °F 28.4 °F 30.4 in East 15.5 mph 23 mph 33% 0 in 374.00 W/m2 unknown
16:04 57.2 °F 30.2 °F 30.4 in East 11.2 mph 23 mph 35% 0 in 367.00 W/m2 unknown
16:09 59 °F 32 °F 30.4 in East 13 mph 18.6 mph 36% 0 in 352.00 W/m2 unknown
16:14 59 °F 32 °F 30.4 in East 12.4 mph 18.6 mph 36% 0 in 346.00 W/m2 unknown
16:19 57.2 °F 32 °F 30.4 in East 12.4 mph 18 mph 36% 0 in 334.00 W/m2 unknown
16:24 57.2 °F 32 °F 30.4 in ESE 12.4 mph 17.4 mph 38% 0 in 318.00 W/m2 unknown
16:29 59 °F 33.8 °F 30.4 in East 11.2 mph 16.8 mph 39% 0 in 295.00 W/m2 unknown
16:34 57.2 °F 33.8 °F 30.4 in East 11.2 mph 16.2 mph 40% 0 in 281.00 W/m2 unknown
16:39 57.2 °F 33.8 °F 30.4 in East 12.4 mph 16.8 mph 41% 0 in 267.00 W/m2 unknown
16:44 57.2 °F 35.6 °F 30.4 in ESE 12.4 mph 17.4 mph 42% 0 in 248.00 W/m2 unknown
16:49 57.2 °F 35.6 °F 30.4 in ESE 10.6 mph 16.8 mph 42% 0 in 237.00 W/m2 unknown
16:54 57.2 °F 33.8 °F 30.4 in ESE 14.3 mph 19.9 mph 41% 0 in 220.00 W/m2 unknown
16:59 57.2 °F 33.8 °F 30.4 in East 14.3 mph 19.9 mph 41% 0 in 206.00 W/m2 unknown
17:04 57.2 °F 33.8 °F 30.4 in ESE 11.2 mph 18 mph 41% 0 in 192.00 W/m2 unknown
17:09 57.2 °F 33.8 °F 30.4 in ESE 8.1 mph 16.8 mph 41% 0 in 169.00 W/m2 unknown
17:14 57.2 °F 33.8 °F 30.4 in East 7.5 mph 11.8 mph 42% 0 in 156.00 W/m2 unknown
17:19 57.2 °F 33.8 °F 30.4 in East 12.4 mph 18 mph 43% 0 in 142.00 W/m2 unknown
17:24 57.2 °F 33.8 °F 30.5 in East 10.6 mph 18 mph 43% 0 in 132.00 W/m2 unknown
17:29 57.2 °F 33.8 °F 30.5 in East 11.2 mph 14.9 mph 43% 0 in 116.00 W/m2 unknown
17:34 57.2 °F 33.8 °F 30.5 in East 13.7 mph 18.6 mph 41% 0 in 100.00 W/m2 unknown
17:39 55.4 °F 30.2 °F 30.5 in East 13 mph 18 mph 38% 0 in 86.00 W/m2 unknown
17:44 55.4 °F 32 °F 30.5 in East 10.6 mph 16.8 mph 40% 0 in 65.00 W/m2 unknown
17:49 55.4 °F 33.8 °F 30.5 in ENE 11.2 mph 17.4 mph 44% 0 in 37.00 W/m2 unknown
17:54 55.4 °F 33.8 °F 30.5 in East 9.9 mph 16.8 mph 45% 0 in 40.00 W/m2 unknown
17:59 55.4 °F 33.8 °F 30.5 in ENE 11.2 mph 14.9 mph 45% 0 in 39.00 W/m2 unknown
18:04 55.4 °F 33.8 °F 30.5 in East 11.8 mph 17.4 mph 46% 0 in 30.00 W/m2 unknown
18:09 55.4 °F 33.8 °F 30.5 in East 11.8 mph 17.4 mph 47% 0 in 23.00 W/m2 unknown
18:14 53.6 °F 33.8 °F 30.5 in East 9.9 mph 13.7 mph 47% 0 in 16.00 W/m2 unknown
18:19 53.6 °F 33.8 °F 30.5 in East 9.9 mph 14.9 mph 48% 0 in 11.00 W/m2 unknown
18:24 53.6 °F 33.8 °F 30.5 in ESE 8.7 mph 11.8 mph 48% 0 in 7.00 W/m2 unknown
18:29 53.6 °F 33.8 °F 30.5 in ESE 14.3 mph 17.4 mph 49% 0 in 5.00 W/m2 unknown
18:34 53.6 °F 33.8 °F 30.5 in ESE 13 mph 16.8 mph 49% 0 in 0.00 W/m2 unknown
18:39 53.6 °F 33.8 °F 30.5 in ESE 9.3 mph 13 mph 48% 0 in 0.00 W/m2 unknown
18:44 51.8 °F 33.8 °F 30.5 in ESE 8.7 mph 12.4 mph 49% 0 in 0.00 W/m2 unknown
18:49 51.8 °F 33.8 °F 30.5 in ESE 8.7 mph 13 mph 49% 0 in 0.00 W/m2 unknown
18:54 51.8 °F 33.8 °F 30.5 in ESE 10.6 mph 11.8 mph 49% 0 in 0.00 W/m2 unknown
18:59 51.8 °F 33.8 °F 30.5 in ESE 9.3 mph 13 mph 49% 0 in 0.00 W/m2 unknown
19:04 51.8 °F 32 °F 30.5 in ESE 9.3 mph 13 mph 49% 0 in 0.00 W/m2 unknown
19:09 51.8 °F 32 °F 30.5 in East 10.6 mph 14.3 mph 49% 0 in 0.00 W/m2 unknown
19:14 50 °F 32 °F 30.5 in ESE 10.6 mph 14.9 mph 49% 0 in 0.00 W/m2 unknown
19:19 50 °F 32 °F 30.5 in East 10.6 mph 14.9 mph 48% 0 in 0.00 W/m2 unknown
19:24 50 °F 32 °F 30.5 in ESE 9.9 mph 14.3 mph 48% 0 in 0.00 W/m2 unknown
19:29 50 °F 32 °F 30.5 in East 9.9 mph 14.3 mph 49% 0 in 0.00 W/m2 unknown
19:34 50 °F 32 °F 30.5 in East 8.7 mph 14.3 mph 50% 0 in 0.00 W/m2 unknown
19:39 50 °F 32 °F 30.5 in East 8.7 mph 11.2 mph 50% 0 in 0.00 W/m2 unknown
19:44 50 °F 32 °F 30.5 in East 8.1 mph 11.8 mph 50% 0 in 0.00 W/m2 unknown
19:49 50 °F 32 °F 30.5 in East 8.1 mph 10.6 mph 50% 0 in 0.00 W/m2 unknown
19:54 48.2 °F 32 °F 30.5 in East 6.2 mph 9.9 mph 51% 0 in 0.00 W/m2 unknown
19:59 48.2 °F 32 °F 30.5 in East 6.2 mph 8.1 mph 51% 0 in 0.00 W/m2 unknown
20:04 48.2 °F 32 °F 30.5 in East 5.6 mph 8.1 mph 51% 0 in 0.00 W/m2 unknown
20:09 48.2 °F 32 °F 30.5 in ENE 4.3 mph 6.2 mph 52% 0 in 0.00 W/m2 unknown
20:14 48.2 °F 32 °F 30.5 in ENE 4.3 mph 6.2 mph 54% 0 in 0.00 W/m2 unknown
20:19 48.2 °F 32 °F 30.5 in ENE 5 mph 6.2 mph 54% 0 in 0.00 W/m2 unknown
20:24 46.4 °F 32 °F 30.5 in ENE 4.3 mph 6.2 mph 55% 0 in 0.00 W/m2 unknown
20:29 46.4 °F 32 °F 30.5 in East 5 mph 6.8 mph 55% 0 in 0.00 W/m2 unknown
20:34 46.4 °F 30.2 °F 30.5 in East 5 mph 6.8 mph 55% 0 in 0.00 W/m2 unknown
20:39 46.4 °F 30.2 °F 30.5 in East 5.6 mph 6.8 mph 55% 0 in 0.00 W/m2 unknown
20:44 46.4 °F 30.2 °F 30.5 in East 5 mph 6.2 mph 56% 0 in 0.00 W/m2 unknown
20:49 46.4 °F 30.2 °F 30.5 in East 4.3 mph 6.2 mph 56% 0 in 0.00 W/m2 unknown
20:54 44.6 °F 30.2 °F 30.5 in ENE 4.3 mph 6.2 mph 56% 0 in 0.00 W/m2 unknown
20:59 44.6 °F 30.2 °F 30.5 in ENE 5 mph 6.2 mph 56% 0 in 0.00 W/m2 unknown
21:04 44.6 °F 30.2 °F 30.5 in ENE 5 mph 6.8 mph 57% 0 in 0.00 W/m2 unknown
21:09 44.6 °F 30.2 °F 30.5 in ENE 5.6 mph 8.1 mph 57% 0 in 0.00 W/m2 unknown
21:14 44.6 °F 30.2 °F 30.5 in ENE 5.6 mph 8.1 mph 57% 0 in 0.00 W/m2 unknown
21:19 44.6 °F 30.2 °F 30.5 in ENE 4.3 mph 8.1 mph 57% 0 in 0.00 W/m2 unknown
21:24 44.6 °F 30.2 °F 30.5 in ESE 3.7 mph 6.8 mph 58% 0 in 0.00 W/m2 unknown
21:29 44.6 °F 30.2 °F 30.5 in ESE 3.1 mph 6.2 mph 59% 0 in 0.00 W/m2 unknown
21:34 42.8 °F 30.2 °F 30.5 in ENE 2.5 mph 5 mph 60% 0 in 0.00 W/m2 unknown
21:39 42.8 °F 30.2 °F 30.5 in ENE 3.7 mph 3.7 mph 60% 0 in 0.00 W/m2 unknown
21:44 42.8 °F 30.2 °F 30.5 in ENE 3.7 mph 5 mph 60% 0 in 0.00 W/m2 unknown
21:49 42.8 °F 30.2 °F 30.5 in East 3.1 mph 5 mph 59% 0 in 0.00 W/m2 unknown
21:54 42.8 °F 30.2 °F 30.5 in ENE 3.1 mph 5 mph 59% 0 in 0.00 W/m2 unknown
21:59 42.8 °F 30.2 °F 30.5 in ENE 4.3 mph 5.6 mph 59% 0 in 0.00 W/m2 unknown
22:04 42.8 °F 28.4 °F 30.6 in ENE 3.7 mph 6.2 mph 59% 0 in 0.00 W/m2 unknown
22:09 42.8 °F 28.4 °F 30.5 in ENE 3.7 mph 6.2 mph 58% 0 in 0.00 W/m2 unknown
22:14 42.8 °F 28.4 °F 30.6 in East 4.3 mph 6.8 mph 58% 0 in 0.00 W/m2 unknown
22:19 42.8 °F 28.4 °F 30.6 in East 5 mph 6.8 mph 58% 0 in 0.00 W/m2 unknown
22:24 42.8 °F 30.2 °F 30.6 in East 5 mph 6.8 mph 61% 0 in 0.00 W/m2 unknown
22:29 42.8 °F 30.2 °F 30.6 in East 5 mph 6.2 mph 61% 0 in 0.00 W/m2 unknown
22:34 42.8 °F 28.4 °F 30.6 in East 5 mph 6.8 mph 58% 0 in 0.00 W/m2 unknown
22:39 42.8 °F 28.4 °F 30.6 in East 4.3 mph 6.8 mph 59% 0 in 0.00 W/m2 unknown
22:44 42.8 °F 28.4 °F 30.6 in East 4.3 mph 6.2 mph 59% 0 in 0.00 W/m2 unknown
22:49 42.8 °F 28.4 °F 30.6 in East 5 mph 6.2 mph 58% 0 in 0.00 W/m2 unknown
22:54 42.8 °F 28.4 °F 30.6 in East 5 mph 6.2 mph 59% 0 in 0.00 W/m2 unknown
22:59 42.8 °F 28.4 °F 30.6 in East 4.3 mph 6.8 mph 59% 0 in 0.00 W/m2 unknown
23:04 42.8 °F 28.4 °F 30.6 in East 5 mph 6.8 mph 60% 0 in 0.00 W/m2 unknown
23:09 42.8 °F 28.4 °F 30.6 in East 3.1 mph 5 mph 59% 0 in 0.00 W/m2 unknown
23:14 42.8 °F 28.4 °F 30.6 in East 3.1 mph 5 mph 60% 0 in 0.00 W/m2 unknown
23:19 41 °F 28.4 °F 30.6 in East 3.7 mph 5 mph 60% 0 in 0.00 W/m2 unknown
23:24 41 °F 28.4 °F 30.6 in ENE 3.7 mph 5 mph 61% 0 in 0.00 W/m2 unknown
23:29 41 °F 28.4 °F 30.6 in East 4.3 mph 6.2 mph 61% 0 in 0.00 W/m2 unknown
23:34 42.8 °F 28.4 °F 30.6 in East 5 mph 6.2 mph 60% 0 in 0.00 W/m2 unknown
23:39 42.8 °F 28.4 °F 30.6 in East 5 mph 6.2 mph 59% 0 in 0.00 W/m2 unknown
23:44 42.8 °F 28.4 °F 30.6 in East 5 mph 6.2 mph 59% 0 in 0.00 W/m2 unknown
23:49 42.8 °F 28.4 °F 30.6 in East 5.6 mph 6.8 mph 59% 0 in 0.00 W/m2 unknown
23:54 42.8 °F 28.4 °F 30.6 in East 5 mph 6.8 mph 58% 0 in 0.00 W/m2 unknown
23:59 42.8 °F 28.4 °F 30.6 in East 5 mph 6.2 mph 59% 0 in 0.00 W/m2 unknown
Stazione Meteorologica MeteoMincio Rivalta s/M (MN)
Con i complimenti di Weather Underground - 4 mb



METEO PILLOLE
Il ghiacciaio più meridionale d'Europa
Ghiacciaio del Calderone, Teramo, Abruzzo, Italia:
Definito "fossile" perchè la parte di ghiaccio vivo è quasi totalmente ricoperta di ghiaia, comunque ospita nevai perenni. Si estende tra circa 2650 m e circa 2850 m di quota sotto la vetta del Corno Grande, cima più alta dell'Appennino (2912 m), gruppo montuoso del Gran Sasso d'Italia.
Share

Non seguire questo link o sarai bannato dal sito!